Terminal Aerodrome Forecast
Issued by NWS

Current Version | Previous Version | Graphics & Text | Print | Product List | Glossary On
Versions: 1 2 3 4 5 6 7 8 9 10 11 12 13 14 15 16 17 18 19 20 21 22 23 24
000
FTUS41 KPBZ 221124
TAFHLG
TAF
KHLG 221124Z 2212/2312 21006KT P6SM VCSH SCT025 BKN035
     FM222300 22008KT P6SM VCTS BKN040CB
      TEMPO 2223/2301 VRB10G20KT 5SM TSRA
     FM230200 24005KT P6SM BKN035
     FM230500 31005KT P6SM VCSH BKN025
     FM230700 32005KT P6SM BKN015=

USA.gov is the U.S. government's official web portal to all federal, state and local government web resources and services.